createdAt,value
2023-11-18T00:02:17.319Z,8.00
2023-11-18T00:04:44.568Z,7.90
2023-11-18T00:07:11.508Z,7.90
2023-11-18T00:09:40.545Z,7.90
2023-11-18T00:12:07.649Z,8.00
2023-11-18T00:14:34.777Z,8.10
2023-11-18T00:17:02.359Z,8.10
2023-11-18T00:19:29.486Z,8.20
2023-11-18T00:21:59.313Z,8.00
2023-11-18T00:24:26.332Z,8.00
2023-11-18T00:26:53.542Z,8.00
2023-11-18T00:29:21.940Z,8.00
2023-11-18T00:31:50.826Z,8.20
2023-11-18T00:34:18.951Z,8.10
2023-11-18T00:36:45.907Z,8.10
2023-11-18T00:39:12.875Z,8.20
2023-11-18T00:41:39.816Z,8.10
2023-11-18T00:44:08.765Z,8.10
2023-11-18T00:46:37.972Z,8.10
2023-11-18T00:49:06.288Z,8.30
2023-11-18T00:51:34.726Z,8.00
2023-11-18T00:54:06.751Z,8.00
2023-11-18T00:56:34.303Z,8.00
2023-11-18T00:59:04.880Z,8.00
2023-11-18T01:01:33.312Z,8.00
2023-11-18T01:04:00.772Z,8.00
2023-11-18T01:06:28.377Z,8.00
2023-11-18T01:08:55.584Z,8.00
2023-11-18T01:11:25.476Z,8.10
2023-11-18T01:13:57.606Z,8.40
2023-11-18T01:16:25.357Z,8.20
2023-11-18T01:18:52.592Z,8.00
2023-11-18T01:21:20.135Z,8.10
2023-11-18T01:23:47.183Z,8.10
2023-11-18T01:26:14.290Z,8.00
2023-11-18T01:28:44.640Z,7.90
2023-11-18T01:31:12.492Z,8.00
2023-11-18T01:33:42.723Z,8.00
2023-11-18T01:36:10.695Z,8.10
2023-11-18T01:38:38.846Z,8.10
2023-11-18T01:41:07.254Z,8.20
2023-11-18T01:43:37.954Z,8.30
2023-11-18T01:46:11.924Z,8.20
2023-11-18T01:48:39.381Z,8.20
2023-11-18T01:51:08.742Z,8.10
2023-11-18T01:53:38.369Z,8.10
2023-11-18T01:56:07.035Z,8.10
2023-11-18T01:58:37.009Z,8.20
2023-11-18T02:01:12.288Z,8.30
2023-11-18T02:03:39.659Z,8.30
2023-11-18T02:06:08.123Z,8.30
2023-11-18T02:08:37.887Z,8.40
2023-11-18T02:11:19.090Z,8.30
2023-11-18T02:13:49.480Z,8.30
2023-11-18T02:16:18.884Z,8.30
2023-11-18T02:18:48.060Z,8.30
2023-11-18T02:21:16.059Z,8.30
2023-11-18T02:23:43.509Z,8.30
2023-11-18T02:26:11.932Z,8.20
2023-11-18T02:28:39.711Z,8.10
2023-11-18T02:31:28.364Z,8.10
2023-11-18T02:34:04.722Z,8.10
2023-11-18T02:36:52.373Z,8.00
2023-11-18T02:39:30.017Z,8.10
2023-11-18T02:41:58.896Z,8.00
2023-11-18T02:44:26.971Z,8.00
2023-11-18T02:46:54.192Z,8.10
2023-11-18T02:49:21.237Z,8.20
2023-11-18T02:51:49.225Z,8.20
2023-11-18T02:54:17.690Z,8.20
2023-11-18T02:56:44.784Z,8.20
2023-11-18T02:59:11.853Z,8.30
2023-11-18T03:01:42.548Z,8.30
2023-11-18T03:04:10.966Z,8.30
2023-11-18T03:06:38.104Z,8.30
2023-11-18T03:09:08.564Z,8.20
2023-11-18T03:11:35.862Z,8.20
2023-11-18T03:14:06.287Z,8.20
2023-11-18T03:16:33.589Z,8.20
2023-11-18T03:19:00.681Z,8.20
2023-11-18T03:21:27.877Z,8.30
2023-11-18T03:23:54.922Z,8.20
2023-11-18T03:26:22.348Z,8.30
2023-11-18T03:28:49.300Z,8.30
2023-11-18T03:31:17.265Z,8.20
2023-11-18T03:33:44.562Z,8.10
2023-11-18T03:36:13.653Z,8.20
2023-11-18T03:38:41.082Z,8.20
2023-11-18T03:41:10.039Z,8.10
2023-11-18T03:43:39.304Z,8.10
2023-11-18T03:46:06.504Z,8.20
2023-11-18T03:48:33.524Z,8.30
2023-11-18T03:51:00.419Z,8.40
2023-11-18T03:53:27.399Z,8.40
2023-11-18T03:55:54.380Z,8.40
2023-11-18T03:58:21.381Z,8.50
2023-11-18T04:00:48.500Z,8.50
2023-11-18T04:03:15.544Z,8.50
2023-11-18T04:05:42.553Z,8.50
2023-11-18T04:08:12.812Z,8.60
2023-11-18T04:10:40.195Z,8.60
2023-11-18T04:13:07.285Z,8.60
2023-11-18T04:15:37.010Z,8.60
2023-11-18T04:18:04.732Z,8.60
2023-11-18T04:20:31.753Z,8.60
2023-11-18T04:22:58.984Z,8.60
2023-11-18T04:25:26.538Z,8.60
2023-11-18T04:27:53.539Z,8.60
2023-11-18T04:30:20.474Z,8.60
2023-11-18T04:32:47.554Z,8.70
2023-11-18T04:35:14.722Z,8.70
2023-11-18T04:37:44.686Z,8.70
2023-11-18T04:40:12.518Z,8.70
2023-11-18T04:42:43.615Z,8.70
2023-11-18T04:45:12.585Z,8.70
2023-11-18T04:47:39.954Z,8.70
2023-11-18T04:50:09.134Z,8.70
2023-11-18T04:52:37.759Z,8.70
2023-11-18T04:55:06.658Z,8.70
2023-11-18T04:57:33.931Z,8.80
2023-11-18T05:00:11.215Z,8.80
2023-11-18T05:02:42.205Z,8.80
2023-11-18T05:05:09.620Z,8.80
2023-11-18T05:07:36.852Z,8.80
2023-11-18T05:10:09.450Z,8.80
2023-11-18T05:12:37.311Z,8.80
2023-11-18T05:15:11.492Z,8.80
2023-11-18T05:17:38.927Z,8.80
2023-11-18T05:20:09.167Z,8.80
2023-11-18T05:22:37.863Z,8.80
2023-11-18T05:25:06.292Z,8.90
2023-11-18T05:27:33.226Z,8.90
2023-11-18T05:30:00.706Z,8.90
2023-11-18T05:32:34.880Z,8.90
2023-11-18T05:35:02.095Z,8.90
2023-11-18T05:37:37.040Z,8.90
2023-11-18T05:40:08.025Z,8.90
2023-11-18T05:42:40.423Z,8.90
2023-11-18T05:45:08.589Z,9.00
2023-11-18T05:47:36.215Z,9.00
2023-11-18T05:50:03.462Z,9.00
2023-11-18T05:52:30.469Z,9.00
2023-11-18T05:54:57.436Z,9.00
2023-11-18T05:57:24.372Z,8.90
2023-11-18T05:59:51.403Z,8.90
2023-11-18T06:02:21.086Z,9.10
2023-11-18T06:04:48.503Z,8.90
2023-11-18T06:07:16.044Z,9.00
2023-11-18T06:09:45.811Z,9.00
2023-11-18T06:12:19.016Z,9.00
2023-11-18T06:14:48.186Z,9.10
2023-11-18T06:17:15.188Z,9.10
2023-11-18T06:19:42.121Z,9.10
2023-11-18T06:22:09.070Z,9.00
2023-11-18T06:24:35.984Z,9.00
2023-11-18T06:27:03.024Z,9.00
2023-11-18T06:29:30.880Z,8.90
2023-11-18T06:31:58.818Z,8.80
2023-11-18T06:34:27.641Z,8.80
2023-11-18T06:36:55.215Z,8.80
2023-11-18T06:39:30.217Z,8.80
2023-11-18T06:41:59.530Z,8.80
2023-11-18T06:44:26.583Z,8.80
2023-11-18T06:46:53.595Z,8.80
2023-11-18T06:49:20.739Z,8.80
2023-11-18T06:51:47.711Z,8.80
2023-11-18T06:54:15.065Z,8.80
2023-11-18T06:56:46.942Z,8.70
2023-11-18T06:59:16.384Z,8.70
2023-11-18T07:01:45.944Z,8.70
2023-11-18T07:04:16.651Z,8.70
2023-11-18T07:06:44.708Z,8.70
2023-11-18T07:09:18.618Z,8.80
2023-11-18T07:11:48.486Z,8.80
2023-11-18T07:14:16.295Z,9.00
2023-11-18T07:16:44.253Z,8.80
2023-11-18T07:19:18.727Z,8.90
2023-11-18T07:21:45.950Z,8.90
2023-11-18T07:24:13.473Z,9.00
2023-11-18T07:26:40.455Z,9.00
2023-11-18T07:29:10.610Z,8.90
2023-11-18T07:31:37.827Z,9.00
2023-11-18T07:34:09.736Z,9.10
2023-11-18T07:36:37.394Z,9.20
2023-11-18T07:39:04.882Z,9.10
2023-11-18T07:41:35.719Z,9.10
2023-11-18T07:44:03.212Z,9.10
2023-11-18T07:46:32.583Z,9.20
2023-11-18T07:48:59.864Z,9.20
2023-11-18T07:51:26.781Z,9.20
2023-11-18T07:53:56.424Z,9.20
2023-11-18T07:56:24.455Z,9.20
2023-11-18T07:58:53.165Z,9.10
2023-11-18T08:01:23.424Z,9.00
2023-11-18T08:03:52.288Z,9.10
2023-11-18T08:06:19.615Z,9.10
2023-11-18T08:08:47.726Z,9.10
2023-11-18T08:11:15.112Z,9.20
2023-11-18T08:13:42.553Z,9.20
2023-11-18T08:16:10.463Z,9.20
2023-11-18T08:18:38.224Z,9.30
2023-11-18T08:21:08.179Z,9.30
2023-11-18T08:23:35.692Z,9.30
2023-11-18T08:26:03.339Z,9.20
2023-11-18T08:28:30.384Z,9.30
2023-11-18T08:30:57.645Z,9.20
2023-11-18T08:33:25.751Z,9.30
2023-11-18T08:35:52.776Z,9.30
2023-11-18T08:38:21.282Z,9.30
2023-11-18T08:40:50.282Z,9.30
2023-11-18T08:43:18.075Z,9.30
2023-11-18T08:45:46.744Z,9.40
2023-11-18T08:48:14.348Z,9.40
2023-11-18T08:50:41.567Z,9.40
2023-11-18T08:53:11.437Z,9.40
2023-11-18T08:55:52.632Z,9.60
2023-11-18T08:58:20.787Z,9.40
2023-11-18T09:00:50.680Z,9.40
2023-11-18T09:03:19.195Z,9.40
2023-11-18T09:05:58.235Z,9.30
2023-11-18T09:08:25.835Z,9.30
2023-11-18T09:10:55.770Z,9.40
2023-11-18T09:13:30.113Z,9.50
2023-11-18T09:16:04.417Z,9.60
2023-11-18T09:18:34.746Z,9.70
2023-11-18T09:21:04.102Z,9.60
2023-11-18T09:23:33.111Z,9.60
2023-11-18T09:26:00.276Z,9.60
2023-11-18T09:28:31.444Z,9.60
2023-11-18T09:30:58.926Z,9.70
2023-11-18T09:33:30.107Z,10.00
2023-11-18T09:36:00.455Z,10.00
2023-11-18T09:38:36.693Z,10.10
2023-11-18T09:41:08.373Z,10.00
2023-11-18T09:43:48.936Z,10.00
2023-11-18T09:46:25.474Z,10.00
2023-11-18T09:49:01.290Z,10.00
2023-11-18T09:51:33.979Z,9.90
2023-11-18T09:54:02.159Z,10.00
2023-11-18T09:57:10.697Z,10.00
2023-11-18T09:59:46.339Z,10.10
2023-11-18T10:02:14.117Z,10.10
2023-11-18T10:04:41.551Z,10.10
2023-11-18T10:07:08.602Z,10.20
2023-11-18T10:09:39.790Z,10.20
2023-11-18T10:12:13.544Z,10.20
2023-11-18T10:14:46.540Z,10.20
2023-11-18T10:17:16.179Z,10.20
2023-11-18T10:20:04.617Z,10.20
2023-11-18T10:22:33.666Z,10.30
2023-11-18T10:25:03.032Z,10.30
2023-11-18T10:27:30.683Z,10.30
2023-11-18T10:30:14.502Z,10.40
2023-11-18T10:32:42.918Z,10.30
2023-11-18T10:35:12.191Z,10.50
2023-11-18T10:37:44.766Z,10.40
2023-11-18T10:40:15.164Z,10.50
2023-11-18T10:42:44.197Z,10.40
2023-11-18T10:45:14.407Z,10.40
2023-11-18T10:47:44.482Z,10.40
2023-11-18T10:50:11.957Z,10.40
2023-11-18T10:52:42.579Z,10.60
2023-11-18T10:55:13.773Z,10.40
2023-11-18T10:57:43.446Z,10.40
2023-11-18T11:00:20.338Z,10.40
2023-11-18T11:02:51.711Z,10.40
2023-11-18T11:05:39.314Z,10.30
2023-11-18T11:08:09.185Z,10.50
2023-11-18T11:10:37.313Z,10.40
2023-11-18T11:13:09.314Z,10.40
2023-11-18T11:15:51.716Z,10.40
2023-11-18T11:18:29.933Z,10.50
2023-11-18T11:21:17.345Z,10.50
2023-11-18T11:24:13.735Z,10.50
2023-11-18T11:27:11.905Z,10.50
2023-11-18T11:29:51.817Z,10.50
2023-11-18T11:32:46.932Z,10.50
2023-11-18T11:35:23.817Z,10.50
2023-11-18T11:37:56.068Z,10.40
2023-11-18T11:40:23.794Z,10.50
2023-11-18T11:42:56.265Z,10.40
2023-11-18T11:45:29.853Z,10.40
2023-11-18T11:48:14.674Z,10.50
2023-11-18T11:51:23.194Z,10.60
2023-11-18T11:54:05.536Z,10.60
2023-11-18T11:56:49.143Z,10.50
2023-11-18T11:59:37.305Z,10.50
2023-11-18T12:02:09.085Z,10.50
2023-11-18T12:04:38.980Z,10.50
2023-11-18T12:07:18.531Z,10.50
2023-11-18T12:09:59.452Z,10.50
2023-11-18T12:12:28.969Z,10.60
2023-11-18T12:15:19.196Z,10.80
2023-11-18T12:18:00.498Z,10.50
2023-11-18T12:20:56.142Z,10.60
2023-11-18T12:23:26.903Z,10.70
2023-11-18T12:25:59.007Z,10.60
2023-11-18T12:28:37.127Z,10.60
2023-11-18T12:31:14.676Z,10.70
2023-11-18T12:33:58.060Z,10.70
2023-11-18T12:36:56.760Z,10.70
2023-11-18T12:39:55.879Z,10.60
2023-11-18T12:43:07.084Z,10.50
2023-11-18T12:46:16.081Z,10.60
2023-11-18T12:48:48.103Z,10.60
2023-11-18T12:51:20.735Z,10.60
2023-11-18T12:53:57.739Z,10.60
2023-11-18T12:56:25.323Z,10.50
2023-11-18T12:58:52.543Z,10.40
2023-11-18T13:01:20.565Z,10.50
2023-11-18T13:03:48.344Z,10.50
2023-11-18T13:06:15.786Z,10.40
2023-11-18T13:08:43.142Z,10.40
2023-11-18T13:11:17.492Z,10.40
2023-11-18T13:13:44.831Z,10.30
2023-11-18T13:16:12.039Z,10.30
2023-11-18T13:18:48.498Z,10.30
2023-11-18T13:21:20.277Z,10.40
2023-11-18T13:24:00.987Z,10.40
2023-11-18T13:26:28.064Z,10.40
2023-11-18T13:28:55.178Z,10.40
2023-11-18T13:31:22.560Z,10.40
2023-11-18T13:33:52.285Z,10.40
2023-11-18T13:36:19.641Z,10.60
2023-11-18T13:38:50.560Z,10.50
2023-11-18T13:41:32.356Z,10.40
2023-11-18T13:43:59.820Z,10.40
2023-11-18T13:46:30.206Z,10.30
2023-11-18T13:48:58.965Z,10.30
2023-11-18T13:51:26.125Z,10.20
2023-11-18T13:53:54.156Z,10.20
2023-11-18T13:56:21.446Z,10.10
2023-11-18T13:58:48.999Z,10.10
2023-11-18T14:01:17.480Z,10.10
2023-11-18T14:03:45.323Z,10.20
2023-11-18T14:06:12.675Z,10.30
2023-11-18T14:08:40.291Z,10.20
2023-11-18T14:11:15.356Z,10.20
2023-11-18T14:13:45.105Z,10.30
2023-11-18T14:16:14.347Z,10.20
2023-11-18T14:18:43.146Z,10.20
2023-11-18T14:21:10.597Z,10.30
2023-11-18T14:23:39.288Z,10.40
2023-11-18T14:26:08.871Z,10.30
2023-11-18T14:28:36.296Z,10.30
2023-11-18T14:31:08.968Z,10.30
2023-11-18T14:33:35.972Z,10.20
2023-11-18T14:36:03.324Z,10.20
2023-11-18T14:38:31.458Z,10.30
2023-11-18T14:40:59.927Z,10.20
2023-11-18T14:43:27.009Z,10.20
2023-11-18T14:45:54.711Z,10.20
2023-11-18T14:48:21.722Z,10.20
2023-11-18T14:50:48.760Z,10.20
2023-11-18T14:53:15.762Z,10.30
2023-11-18T14:55:43.347Z,10.20
2023-11-18T14:58:13.137Z,10.20
2023-11-18T15:00:41.100Z,10.40
2023-11-18T15:03:08.496Z,10.30
2023-11-18T15:05:35.910Z,10.30
2023-11-18T15:08:03.048Z,10.20
2023-11-18T15:10:30.071Z,10.10
2023-11-18T15:13:00.047Z,10.30
2023-11-18T15:15:35.835Z,10.20
2023-11-18T15:18:06.135Z,10.20
2023-11-18T15:20:33.434Z,10.10
2023-11-18T15:23:01.510Z,10.20
2023-11-18T15:25:28.564Z,10.00
2023-11-18T15:27:57.380Z,10.30
2023-11-18T15:30:28.658Z,10.20
2023-11-18T15:33:03.437Z,10.20
2023-11-18T15:35:30.522Z,10.10
2023-11-18T15:37:57.670Z,10.10
2023-11-18T15:40:27.061Z,10.00
2023-11-18T15:42:54.886Z,10.10
2023-11-18T15:45:28.074Z,10.20
2023-11-18T15:47:55.559Z,10.20
2023-11-18T15:50:22.717Z,10.20
2023-11-18T15:52:50.933Z,10.20
2023-11-18T15:55:19.135Z,10.20
2023-11-18T15:57:54.016Z,10.20
2023-11-18T16:00:26.043Z,10.30
2023-11-18T16:03:02.592Z,10.30
2023-11-18T16:05:35.634Z,10.20
2023-11-18T16:08:04.834Z,10.30
2023-11-18T16:10:32.719Z,10.30
2023-11-18T16:13:01.078Z,10.20
2023-11-18T16:15:29.936Z,10.40
2023-11-18T16:17:58.868Z,10.30
2023-11-18T16:20:28.126Z,10.40
2023-11-18T16:22:56.439Z,10.40
2023-11-18T16:25:31.303Z,10.40
2023-11-18T16:28:03.241Z,10.30
2023-11-18T16:30:31.260Z,10.30
2023-11-18T16:32:59.581Z,10.40
2023-11-18T16:35:27.368Z,10.50
2023-11-18T16:37:55.797Z,10.50
2023-11-18T16:40:25.437Z,10.70
2023-11-18T16:42:57.946Z,10.70
2023-11-18T16:45:26.143Z,10.50
2023-11-18T16:47:55.055Z,10.50
2023-11-18T16:50:28.499Z,10.60
2023-11-18T16:52:57.495Z,10.60
2023-11-18T16:55:25.252Z,10.60
2023-11-18T16:57:54.512Z,10.70
2023-11-18T17:00:26.615Z,10.70
2023-11-18T17:02:57.567Z,10.70
2023-11-18T17:05:26.676Z,10.80
2023-11-18T17:07:56.381Z,10.80
2023-11-18T17:10:24.352Z,10.80
2023-11-18T17:12:52.415Z,10.90
2023-11-18T17:15:20.156Z,10.90
2023-11-18T17:18:03.554Z,10.90
2023-11-18T17:20:31.899Z,10.90
2023-11-18T17:22:59.151Z,10.90
2023-11-18T17:25:26.148Z,11.00
2023-11-18T17:27:55.790Z,11.10
2023-11-18T17:30:23.617Z,11.00
2023-11-18T17:32:53.416Z,11.10
2023-11-18T17:35:21.624Z,11.10
2023-11-18T17:37:49.011Z,11.10
2023-11-18T17:40:17.094Z,11.10
2023-11-18T17:42:45.221Z,11.20
2023-11-18T17:45:13.698Z,11.10
2023-11-18T17:47:45.830Z,11.20
2023-11-18T17:50:15.281Z,11.20
2023-11-18T17:52:47.724Z,11.20
2023-11-18T17:55:18.338Z,11.30
2023-11-18T17:57:45.918Z,11.40
2023-11-18T18:00:14.696Z,11.50
2023-11-18T18:02:43.911Z,11.40
2023-11-18T18:05:13.646Z,11.40
2023-11-18T18:07:41.529Z,11.40
2023-11-18T18:10:09.794Z,11.40
2023-11-18T18:12:37.917Z,11.40
2023-11-18T18:15:09.397Z,11.40
2023-11-18T18:17:38.066Z,11.40
2023-11-18T18:20:10.031Z,11.50
2023-11-18T18:22:41.133Z,11.50
2023-11-18T18:25:09.880Z,11.50
2023-11-18T18:27:36.950Z,11.60
2023-11-18T18:30:04.339Z,11.60
2023-11-18T18:32:31.637Z,11.60
2023-11-18T18:34:59.354Z,11.60
2023-11-18T18:37:27.838Z,11.70
2023-11-18T18:39:56.528Z,11.70
2023-11-18T18:42:24.294Z,11.70
2023-11-18T18:44:55.573Z,11.90
2023-11-18T18:47:23.113Z,11.80
2023-11-18T18:49:50.973Z,11.90
2023-11-18T18:52:19.073Z,11.90
2023-11-18T18:54:46.514Z,11.90
2023-11-18T18:57:13.570Z,12.00
2023-11-18T18:59:40.785Z,12.00
2023-11-18T19:02:09.481Z,12.00
2023-11-18T19:04:36.915Z,12.00
2023-11-18T19:07:04.147Z,12.00
2023-11-18T19:09:31.110Z,12.10
2023-11-18T19:11:58.204Z,12.10
2023-11-18T19:14:25.340Z,12.20
2023-11-18T19:16:52.277Z,12.20
2023-11-18T19:19:19.952Z,12.30
2023-11-18T19:21:52.070Z,12.30
2023-11-18T19:24:20.708Z,12.40
2023-11-18T19:26:49.208Z,12.50
2023-11-18T19:29:16.461Z,12.50
2023-11-18T19:31:44.094Z,12.60
2023-11-18T19:34:11.623Z,12.50
2023-11-18T19:36:38.711Z,12.50
2023-11-18T19:39:06.724Z,12.50
2023-11-18T19:41:33.750Z,12.60
2023-11-18T19:44:00.895Z,12.60
2023-11-18T19:46:28.142Z,12.80
2023-11-18T19:48:55.070Z,12.70
2023-11-18T19:51:22.062Z,12.80
2023-11-18T19:53:48.996Z,12.70
2023-11-18T19:56:20.087Z,12.90
2023-11-18T19:58:47.040Z,13.00
2023-11-18T20:01:19.044Z,12.90
2023-11-18T20:03:46.929Z,12.90
2023-11-18T20:06:14.616Z,13.10
2023-11-18T20:08:42.081Z,12.90
2023-11-18T20:11:10.980Z,12.90
2023-11-18T20:13:38.735Z,12.90
2023-11-18T20:16:11.289Z,13.00
2023-11-18T20:18:38.656Z,13.00
2023-11-18T20:21:06.481Z,12.90
2023-11-18T20:23:33.625Z,13.00
2023-11-18T20:26:00.647Z,13.00
2023-11-18T20:28:27.863Z,13.10
2023-11-18T20:30:54.917Z,13.10
2023-11-18T20:33:25.453Z,13.20
2023-11-18T20:35:53.104Z,13.10
2023-11-18T20:38:20.773Z,13.20
2023-11-18T20:40:49.134Z,13.10
2023-11-18T20:43:17.457Z,13.30
2023-11-18T20:45:44.454Z,13.10
2023-11-18T20:48:11.573Z,13.30
2023-11-18T20:50:38.712Z,13.20
2023-11-18T20:53:05.953Z,13.20
2023-11-18T20:55:33.253Z,13.40
2023-11-18T20:58:03.250Z,13.20
2023-11-18T21:00:32.399Z,13.20
2023-11-18T21:02:59.736Z,13.20
2023-11-18T21:05:26.970Z,13.30
2023-11-18T21:07:54.221Z,13.20
2023-11-18T21:10:21.222Z,13.30
2023-11-18T21:12:49.238Z,13.30
2023-11-18T21:15:16.686Z,13.20
2023-11-18T21:17:44.029Z,13.40
2023-11-18T21:20:14.712Z,13.40
2023-11-18T21:22:43.259Z,13.50
2023-11-18T21:25:13.057Z,13.50
2023-11-18T21:27:40.334Z,13.60
2023-11-18T21:30:11.803Z,13.70
2023-11-18T21:32:44.200Z,13.60
2023-11-18T21:35:19.555Z,13.70
2023-11-18T21:37:47.292Z,13.80
2023-11-18T21:40:14.396Z,13.80
2023-11-18T21:42:42.228Z,13.80
2023-11-18T21:45:11.646Z,13.80
2023-11-18T21:47:40.062Z,13.90
2023-11-18T21:50:08.003Z,13.90
2023-11-18T21:52:35.167Z,13.90
2023-11-18T21:55:04.794Z,14.00
2023-11-18T21:57:31.694Z,14.00
2023-11-18T21:59:58.612Z,14.00
2023-11-18T22:02:25.515Z,14.10
2023-11-18T22:04:52.633Z,14.10
2023-11-18T22:07:19.634Z,13.80
2023-11-18T22:09:48.389Z,13.90
2023-11-18T22:12:15.337Z,13.90
2023-11-18T22:14:43.145Z,13.90
2023-11-18T22:17:10.235Z,14.10
2023-11-18T22:19:38.974Z,13.90
2023-11-18T22:22:05.866Z,13.90
2023-11-18T22:24:32.773Z,13.90
2023-11-18T22:27:00.121Z,14.00
2023-11-18T22:29:30.564Z,13.90
2023-11-18T22:31:58.173Z,14.00
2023-11-18T22:34:25.152Z,14.00
2023-11-18T22:36:52.387Z,14.10
2023-11-18T22:39:24.588Z,14.00
2023-11-18T22:41:51.417Z,14.10
2023-11-18T22:44:23.708Z,14.00
2023-11-18T22:46:50.982Z,14.00
2023-11-18T22:49:19.274Z,14.00
2023-11-18T22:51:47.460Z,14.10
2023-11-18T22:54:18.770Z,14.00
2023-11-18T22:56:45.997Z,14.00
2023-11-18T22:59:13.370Z,14.10
2023-11-18T23:01:40.953Z,14.10
2023-11-18T23:04:13.075Z,14.00
2023-11-18T23:06:40.712Z,14.00
2023-11-18T23:09:13.793Z,14.00
2023-11-18T23:11:41.415Z,14.00
2023-11-18T23:14:09.322Z,14.10
2023-11-18T23:16:37.232Z,14.00
2023-11-18T23:19:04.455Z,13.90
2023-11-18T23:21:34.510Z,14.00
2023-11-18T23:24:02.576Z,14.00
2023-11-18T23:26:30.769Z,14.00
2023-11-18T23:28:57.727Z,13.90
2023-11-18T23:31:26.465Z,13.90
2023-11-18T23:33:55.033Z,13.90
2023-11-18T23:36:22.400Z,14.00
2023-11-18T23:38:49.849Z,14.00
2023-11-18T23:41:17.940Z,14.00
2023-11-18T23:43:46.290Z,13.90
2023-11-18T23:46:14.853Z,13.90
2023-11-18T23:48:43.358Z,13.90
2023-11-18T23:51:13.389Z,14.00
2023-11-18T23:53:40.694Z,13.90
2023-11-18T23:56:08.179Z,14.10
2023-11-18T23:58:35.064Z,14.00
